Time;durP1;ratioP1;P1;durP2;ratioP2;P2;SDS_P1;SDS_P2;PMS_P1;PMS_P2;Temp;Humidity;BMP_temperature;BMP_pressure;BME280_temperature;BME280_humidity;BME280_pressure;Samples;Min_cycle;Max_cycle;Signal;HPM_P1;HPM_P2
2021/12/27 00:02:59;;;;;;;173.20;60.23;;;;;;;-12.07;83.78;98927.25;3969524;88;21053;-78
2021/12/27 00:09:00;;;;;;;185.03;60.70;;;;;;;-12.10;83.74;98930.36;3967328;88;21070;-78
2021/12/27 00:15:04;;;;;;;195.37;64.73;;;;;;;-12.17;83.76;98925.23;3963871;88;21054;-78
2021/12/27 00:21:06;;;;;;;169.87;60.53;;;;;;;-12.23;83.81;98915.57;3962995;89;21661;-79
2021/12/27 00:27:07;;;;;;;167.07;57.70;;;;;;;-12.26;83.95;98919.21;3972624;88;21081;-78
2021/12/27 00:33:09;;;;;;;166.87;58.40;;;;;;;-12.32;84.02;98916.96;3952537;88;21056;-79
2021/12/27 00:39:10;;;;;;;173.73;56.63;;;;;;;-12.35;84.04;98924.02;3965766;88;21679;-79
2021/12/27 00:45:12;;;;;;;165.63;57.77;;;;;;;-12.38;84.27;98914.44;3969005;88;21593;-78
2021/12/27 00:51:13;;;;;;;172.33;56.40;;;;;;;-12.39;84.15;98920.75;3962113;89;21077;-78
2021/12/27 00:57:36;;;;;;;160.10;55.10;;;;;;;-12.44;84.08;98920.64;3964162;88;21082;-78
2021/12/27 01:03:37;;;;;;;163.63;56.37;;;;;;;-12.52;83.95;98904.64;3965479;88;21047;-79
2021/12/27 01:10:03;;;;;;;160.37;54.17;;;;;;;-12.58;84.08;98913.98;3966323;88;21784;-79
2021/12/27 01:15:49;;;;;;;162.00;56.75;;;;;;;-12.58;84.21;98917.44;3969733;88;21050;-78
2021/12/27 01:21:50;;;;;;;163.73;56.30;;;;;;;-12.62;84.12;98913.63;3964682;89;21049;-79
2021/12/27 01:27:53;;;;;;;162.87;53.67;;;;;;;-12.63;84.16;98915.18;3974400;88;21062;-78
2021/12/27 01:33:56;;;;;;;119.80;42.83;;;;;;;-12.62;84.09;98918.91;3957374;89;21066;-79
2021/12/27 01:39:58;;;;;;;150.53;53.47;;;;;;;-12.59;84.23;98922.41;3965294;88;21073;-78
2021/12/27 01:46:23;;;;;;;162.13;53.53;;;;;;;-12.49;84.25;98925.79;3960818;88;21581;-78
2021/12/27 01:52:25;;;;;;;160.25;55.90;;;;;;;-12.54;84.17;98917.25;3959124;88;22358;-78
2021/12/27 01:58:30;;;;;;;168.73;53.80;;;;;;;-12.50;84.20;98913.65;3960224;88;21102;-78
2021/12/27 02:04:31;;;;;;;160.90;52.63;;;;;;;-12.52;84.14;98912.56;3965796;88;21096;-78
2021/12/27 02:10:33;;;;;;;152.37;54.47;;;;;;;-12.55;84.23;98914.34;3951013;88;21063;-80
2021/12/27 02:16:36;;;;;;;138.83;53.17;;;;;;;-12.55;84.23;98907.75;3951607;88;21071;-78
2021/12/27 02:22:40;;;;;;;155.17;55.37;;;;;;;-12.63;84.07;98896.72;3967926;88;21084;-80
2021/12/27 02:28:48;;;;;;;169.37;57.03;;;;;;;-12.66;84.16;98880.86;3965984;88;21353;-78
2021/12/27 02:34:50;;;;;;;175.40;59.10;;;;;;;-12.68;84.19;98883.45;3972370;89;21058;-78
2021/12/27 02:40:52;;;;;;;147.90;54.77;;;;;;;-12.71;84.30;98873.33;3960570;88;21091;-78
2021/12/27 02:47:02;;;;;;;173.73;58.23;;;;;;;-12.75;84.27;98876.16;3964629;88;21034;-78
2021/12/27 02:53:06;;;;;;;172.43;57.90;;;;;;;-12.72;84.34;98888.37;3957820;88;21637;-79
2021/12/27 03:05:35;;;;;;;189.77;66.37;;;;;;;-12.82;84.21;98884.16;3993567;88;21044;-78
2021/12/27 03:12:10;;;;;;;185.37;63.07;;;;;;;-12.93;84.14;98868.36;4004292;87;21024;-78
2021/12/27 03:18:12;;;;;;;194.70;65.57;;;;;;;-13.03;84.32;98865.50;3999865;87;21625;-79
2021/12/27 03:24:14;;;;;;;199.27;66.90;;;;;;;-13.00;84.64;98869.00;3995461;87;21587;-80
2021/12/27 03:30:25;;;;;;;182.70;66.60;;;;;;;-12.89;84.79;98870.31;3994139;88;22360;-79
2021/12/27 03:36:28;;;;;;;198.40;66.43;;;;;;;-12.83;84.92;98881.25;3977352;88;21082;-78
2021/12/27 03:42:29;;;;;;;192.13;67.37;;;;;;;-12.70;85.05;98884.19;4001500;88;21136;-78
2021/12/27 03:48:32;;;;;;;197.60;66.47;;;;;;;-12.60;85.15;98890.48;4006946;88;21059;-79
2021/12/27 03:54:33;;;;;;;189.33;68.93;;;;;;;-12.50;85.37;98880.69;4000768;88;21559;-78
2021/12/27 04:01:40;;;;;;;176.07;61.80;;;;;;;-12.39;85.49;98878.05;3958212;88;21735;-78
2021/12/27 04:06:51;;;;;;;158.90;56.57;;;;;;;-12.29;85.56;98879.56;3938517;88;21184;-79
2021/12/27 04:12:52;;;;;;;141.70;51.57;;;;;;;-12.17;85.79;98884.33;3958627;88;21984;-80
2021/12/27 04:18:55;;;;;;;153.83;53.07;;;;;;;-12.09;85.78;98885.80;3954183;88;21124;-80
2021/12/27 04:24:56;;;;;;;143.87;49.80;;;;;;;-12.11;85.79;98888.67;3951848;88;21571;-78
2021/12/27 04:30:58;;;;;;;149.20;50.57;;;;;;;-12.08;85.89;98897.95;3960137;88;21420;-80
2021/12/27 04:36:59;;;;;;;128.60;47.53;;;;;;;-12.01;86.01;98914.48;3947581;88;21057;-80
2021/12/27 04:43:09;;;;;;;130.73;40.43;;;;;;;-12.01;86.16;98909.20;3952871;89;21058;-79
2021/12/27 04:49:10;;;;;;;102.30;36.57;;;;;;;-11.98;86.27;98909.52;3958357;89;22460;-81
2021/12/27 04:55:12;;;;;;;97.37;34.63;;;;;;;-11.86;86.40;98902.39;3957939;88;21101;-80
2021/12/27 05:01:14;;;;;;;85.97;31.37;;;;;;;-11.75;86.98;98894.15;3936514;88;21072;-79
2021/12/27 05:07:15;;;;;;;76.80;26.33;;;;;;;-11.66;87.13;98898.83;3909916;90;21060;-78
2021/12/27 05:13:18;;;;;;;82.47;30.37;;;;;;;-11.48;87.23;98911.02;3924201;89;21044;-80
2021/12/27 05:19:19;;;;;;;90.17;30.10;;;;;;;-11.29;87.37;98900.55;3902524;90;21123;-79
2021/12/27 05:25:20;;;;;;;86.40;31.40;;;;;;;-11.20;87.64;98901.77;3921564;90;21084;-80
2021/12/27 05:31:22;;;;;;;87.90;30.60;;;;;;;-11.11;87.58;98885.80;3906581;90;21100;-80
2021/12/27 05:37:23;;;;;;;97.43;32.20;;;;;;;-10.98;87.69;98884.17;3840049;90;21087;-77
2021/12/27 05:43:27;;;;;;;91.43;34.23;;;;;;;-10.84;87.58;98882.81;3927203;89;21101;-78
2021/12/27 05:49:29;;;;;;;107.87;35.37;;;;;;;-10.77;87.59;98883.98;3921830;89;21052;-78
2021/12/27 05:55:30;;;;;;;107.63;36.37;;;;;;;-10.66;87.86;98885.20;3922189;89;21587;-77
2021/12/27 06:01:32;;;;;;;96.23;32.10;;;;;;;-10.52;87.89;98883.83;3895768;89;21161;-78
2021/12/27 06:07:33;;;;;;;97.27;34.53;;;;;;;-10.39;88.07;98879.53;3874142;91;21093;-79
2021/12/27 06:13:35;;;;;;;97.00;34.10;;;;;;;-10.24;88.08;98873.66;3872540;90;22023;-78
2021/12/27 06:19:37;;;;;;;96.57;34.77;;;;;;;-10.16;88.01;98867.91;3871129;90;21156;-78
2021/12/27 06:25:38;;;;;;;87.63;29.60;;;;;;;-10.07;88.21;98867.79;3892141;91;21115;-78
2021/12/27 06:31:40;;;;;;;88.57;31.07;;;;;;;-10.00;88.06;98861.23;3876695;89;21525;-78
2021/12/27 06:37:45;;;;;;;80.23;31.50;;;;;;;-9.94;88.27;98876.64;3867262;91;21124;-78
2021/12/27 06:43:46;;;;;;;92.85;33.53;;;;;;;-9.85;88.35;98865.92;3880723;91;21144;-77
2021/12/27 06:49:48;;;;;;;81.53;28.00;;;;;;;-9.77;88.36;98866.78;3873865;91;21147;-79
2021/12/27 06:55:50;;;;;;;90.13;32.10;;;;;;;-9.71;88.51;98868.47;3862517;91;21093;-78
2021/12/27 07:01:51;;;;;;;81.97;28.63;;;;;;;-9.58;88.68;98867.28;3903282;89;21067;-79
2021/12/27 07:07:52;;;;;;;79.30;25.63;;;;;;;-9.48;88.48;98865.53;3971958;87;21111;-79
2021/12/27 07:14:28;;;;;;;78.70;28.33;;;;;;;-9.44;88.63;98858.67;3974328;87;21062;-78
2021/12/27 07:20:29;;;;;;;72.03;24.23;;;;;;;-9.36;88.70;98854.80;3967655;87;21058;-78
2021/12/27 07:26:30;;;;;;;60.07;23.03;;;;;;;-9.27;88.72;98850.64;3968751;88;21054;-78
2021/12/27 07:32:31;;;;;;;60.60;23.60;;;;;;;-9.25;88.79;98853.30;3986157;88;21663;-78
2021/12/27 07:38:33;;;;;;;59.13;20.60;;;;;;;-9.22;88.85;98855.45;3986032;88;21101;-78
2021/12/27 07:44:34;;;;;;;60.77;21.33;;;;;;;-9.19;88.95;98840.36;3972637;87;21099;-81
2021/12/27 07:50:37;;;;;;;56.67;21.27;;;;;;;-9.18;89.15;98830.56;3982078;89;21106;-78
2021/12/27 07:56:38;;;;;;;53.47;18.10;;;;;;;-9.10;89.18;98838.88;3976171;88;21138;-79
2021/12/27 08:02:40;;;;;;;52.23;20.10;;;;;;;-9.04;89.44;98830.42;3964713;88;21618;-78
2021/12/27 08:08:41;;;;;;;52.73;20.40;;;;;;;-9.03;89.62;98828.84;3948488;89;21118;-80
2021/12/27 08:14:42;;;;;;;52.60;17.80;;;;;;;-8.89;89.79;98829.20;3961006;89;21082;-80
2021/12/27 08:20:44;;;;;;;53.73;19.77;;;;;;;-8.84;89.96;98826.08;3957755;89;21568;-80
2021/12/27 08:26:45;;;;;;;51.43;20.43;;;;;;;-8.69;89.85;98816.89;3956038;88;21097;-79
2021/12/27 08:32:47;;;;;;;60.77;20.73;;;;;;;-8.62;89.78;98808.71;3954242;88;21088;-79
2021/12/27 08:38:50;;;;;;;63.00;23.70;;;;;;;-8.49;89.75;98795.00;3967740;88;21570;-80
2021/12/27 08:44:52;;;;;;;69.30;24.67;;;;;;;-8.34;89.76;98788.43;3950094;89;21169;-79
2021/12/27 08:50:53;;;;;;;65.43;25.03;;;;;;;-8.19;89.78;98798.56;3959286;88;21569;-79
2021/12/27 08:56:56;;;;;;;69.63;27.10;;;;;;;-8.05;89.69;98796.25;3957770;88;21085;-81
2021/12/27 09:02:57;;;;;;;75.53;28.20;;;;;;;-7.96;89.68;98787.23;3957806;89;21074;-80
2021/12/27 09:08:58;;;;;;;75.90;29.10;;;;;;;-7.87;89.65;98779.83;3933986;89;21099;-80
2021/12/27 09:15:01;;;;;;;81.00;29.50;;;;;;;-7.82;89.78;98769.22;3917799;88;21051;-79
2021/12/27 09:21:04;;;;;;;90.17;33.03;;;;;;;-7.87;89.96;98771.86;3866468;85;46014;-79
2021/12/27 09:27:06;;;;;;;87.50;30.73;;;;;;;-7.83;89.97;98760.98;4112628;85;21888;-79
2021/12/27 09:33:07;;;;;;;85.17;29.40;;;;;;;-7.75;89.98;98753.03;4110919;85;21078;-80
2021/12/27 09:39:09;;;;;;;83.47;27.83;;;;;;;-7.67;90.04;98749.31;4115408;85;21001;-80
2021/12/27 09:45:11;;;;;;;87.50;32.80;;;;;;;-7.61;90.07;98751.46;4093952;85;21537;-79
2021/12/27 09:51:12;;;;;;;121.67;39.00;;;;;;;-7.61;89.90;98747.47;4116006;85;21571;-79
2021/12/27 09:57:14;;;;;;;111.67;38.03;;;;;;;-7.56;89.81;98738.18;4117977;85;21027;-80
2021/12/27 10:03:16;;;;;;;112.87;42.93;;;;;;;-7.59;89.89;98746.66;4138430;84;21101;-79
2021/12/27 10:09:17;;;;;;;109.00;38.77;;;;;;;-7.57;89.97;98744.54;4148478;84;22288;-79
2021/12/27 10:15:24;;;;;;;112.00;40.73;;;;;;;-7.50;90.02;98739.78;4143376;84;21076;-79
2021/12/27 10:21:26;;;;;;;118.60;41.50;;;;;;;-7.42;90.04;98744.02;4146941;84;21051;-80
2021/12/27 10:27:33;;;;;;;123.03;41.53;;;;;;;-7.31;90.14;98744.84;4140708;84;21071;-79
2021/12/27 10:33:33;;;;;;;112.50;41.58;;;;;;;-7.26;89.91;98734.99;4146844;84;21079;-80
2021/12/27 10:40:02;;;;;;;119.80;40.50;;;;;;;-7.15;90.07;98729.94;4143898;84;22339;-79
2021/12/27 10:46:05;;;;;;;122.07;41.53;;;;;;;-7.08;90.06;98721.14;4103564;84;43101;-81
2021/12/27 10:52:08;;;;;;;111.57;39.63;;;;;;;-7.00;90.13;98712.62;4123353;85;21031;-81
2021/12/27 10:58:23;;;;;;;104.00;36.77;;;;;;;-6.96;90.03;98704.38;4121844;84;21651;-80
2021/12/27 11:04:25;;;;;;;109.37;38.63;;;;;;;-7.02;89.80;98700.14;4119836;85;21110;-80
2021/12/27 11:10:36;;;;;;;113.87;37.57;;;;;;;-6.97;90.06;98688.69;4106690;85;21673;-80
2021/12/27 11:16:37;;;;;;;106.17;39.23;;;;;;;-6.98;90.05;98681.23;4118442;86;21047;-80
2021/12/27 11:22:43;;;;;;;115.20;41.53;;;;;;;-6.95;90.07;98667.38;4109655;85;21523;-81
2021/12/27 11:28:45;;;;;;;101.47;38.90;;;;;;;-6.87;90.18;98665.50;4091138;86;21073;-81
2021/12/27 11:34:57;;;;;;;108.70;40.77;;;;;;;-6.79;90.16;98655.63;4126081;86;21098;-81
2021/12/27 11:41:02;;;;;;;110.53;38.47;;;;;;;-6.72;90.13;98664.11;4117775;85;21059;-80
2021/12/27 11:47:08;;;;;;;93.30;34.07;;;;;;;-6.62;90.23;98650.78;4112311;86;21043;-81
2021/12/27 11:53:13;;;;;;;100.73;35.37;;;;;;;-6.59;89.93;98646.77;4121849;85;21066;-79
2021/12/27 11:59:41;;;;;;;97.00;35.53;;;;;;;-6.69;89.81;98649.48;4092859;85;31185;-80
2021/12/27 12:05:54;;;;;;;92.53;36.00;;;;;;;-6.72;89.84;98650.80;4125163;86;21917;-81
2021/12/27 12:12:05;;;;;;;95.73;36.17;;;;;;;-6.66;89.92;98648.41;4103266;85;21448;-80
2021/12/27 12:18:19;;;;;;;104.33;39.23;;;;;;;-6.63;89.78;98637.74;4070919;87;21558;-80
2021/12/27 12:24:22;;;;;;;97.20;36.47;;;;;;;-6.68;89.79;98616.46;4141880;82;37832;-81
2021/12/27 12:30:28;;;;;;;93.60;35.60;;;;;;;-6.73;89.64;98611.95;4122276;84;32573;-81
2021/12/27 12:36:29;;;;;;;;;;;;;;;-6.80;89.42;98622.64;4087804;87;21658;-80
2021/12/27 12:42:31;;;;;;;98.57;34.57;;;;;;;-6.92;89.45;98610.19;4030901;88;20123;-80
2021/12/27 12:48:32;;;;;;;90.13;35.37;;;;;;;-6.96;89.52;98609.92;4086015;86;21058;-80
2021/12/27 12:54:39;;;;;;;93.43;36.60;;;;;;;-6.94;89.73;98612.31;4015154;88;21071;-80
2021/12/27 13:00:41;;;;;;;91.83;35.20;;;;;;;-6.86;89.79;98609.87;4028153;87;21688;-80
2021/12/27 13:06:46;;;;;;;95.87;34.03;;;;;;;-6.87;89.59;98599.50;4071735;86;21122;-80
2021/12/27 13:12:48;;;;;;;91.27;34.47;;;;;;;-6.85;89.84;98597.37;4091673;86;21063;-80
2021/12/27 13:18:49;;;;;;;81.63;31.70;;;;;;;-6.80;89.59;98596.83;4083678;85;21063;-79
2021/12/27 13:24:55;;;;;;;91.60;33.33;;;;;;;-6.86;89.65;98605.87;4119453;84;21125;-80
2021/12/27 13:31:02;;;;;;;80.10;31.75;;;;;;;-6.87;89.65;98600.83;4083172;85;21622;-79
2021/12/27 13:37:16;;;;;;;93.40;35.07;;;;;;;-6.92;89.63;98596.32;4126925;84;21045;-79
2021/12/27 13:43:19;;;;;;;102.93;35.90;;;;;;;-6.94;89.72;98593.13;4109582;84;21158;-79
2021/12/27 13:49:21;;;;;;;96.60;38.43;;;;;;;-6.93;89.72;98588.61;4121679;84;21011;-80
2021/12/27 13:55:28;;;;;;;99.30;37.30;;;;;;;-6.95;89.72;98588.08;4122916;85;21652;-80
2021/12/27 14:01:29;;;;;;;97.23;39.50;;;;;;;-6.93;89.83;98605.38;4124307;84;20992;-79
2021/12/27 14:07:31;;;;;;;107.63;39.43;;;;;;;-6.92;89.79;98591.00;4117978;85;21086;-79
2021/12/27 14:13:47;;;;;;;98.87;39.43;;;;;;;-6.95;89.66;98606.18;3926117;87;27785;-79
2021/12/27 14:20:11;;;;;;;97.77;38.70;;;;;;;-6.93;89.83;98608.57;4059814;86;21083;-80
2021/12/27 14:26:15;;;;;;;90.43;37.93;;;;;;;-6.89;89.83;98609.08;4060136;86;21074;-79
2021/12/27 14:32:18;;;;;;;106.40;39.63;;;;;;;-6.89;89.70;98614.41;4054279;86;21066;-82
2021/12/27 14:38:24;;;;;;;119.20;41.57;;;;;;;-6.96;89.52;98621.89;4060883;86;21353;-79
2021/12/27 14:44:27;;;;;;;126.43;42.80;;;;;;;-7.01;89.58;98612.59;4063540;86;22063;-79
2021/12/27 14:50:30;;;;;;;128.97;44.23;;;;;;;-7.06;89.58;98616.59;4060425;86;21087;-82
2021/12/27 14:56:32;;;;;;;128.23;43.73;;;;;;;-7.11;89.61;98612.61;4061582;86;21049;-79
2021/12/27 15:03:12;;;;;;;121.63;43.03;;;;;;;-7.10;89.67;98620.06;4056277;85;21062;-79
2021/12/27 15:09:13;;;;;;;121.90;44.40;;;;;;;-7.15;89.49;98622.73;4051019;86;21048;-80
2021/12/27 15:15:19;;;;;;;120.87;41.27;;;;;;;-7.23;89.52;98632.06;4053303;86;21028;-79
2021/12/27 15:21:22;;;;;;;126.97;44.97;;;;;;;-7.28;89.47;98626.74;4053209;86;21099;-79
2021/12/27 15:27:23;;;;;;;138.23;47.60;;;;;;;-7.30;89.62;98626.23;4053027;86;21112;-80
2021/12/27 15:33:30;;;;;;;132.23;45.70;;;;;;;-7.30;89.67;98633.41;4052469;86;21021;-79
2021/12/27 15:39:31;;;;;;;133.93;44.87;;;;;;;-7.28;89.70;98629.95;4053394;86;21051;-80
2021/12/27 15:45:34;;;;;;;141.33;48.17;;;;;;;-7.30;89.74;98627.56;4051508;86;21016;-79
2021/12/27 15:51:35;;;;;;;125.53;45.17;;;;;;;-7.29;89.80;98631.81;4053382;86;21118;-80
2021/12/27 15:57:37;;;;;;;122.63;42.57;;;;;;;-7.29;89.77;98640.31;4049880;86;21068;-80
2021/12/27 16:03:41;;;;;;;124.27;44.13;;;;;;;-7.29;89.88;98636.32;4053227;85;21063;-80
2021/12/27 16:09:43;;;;;;;126.90;45.77;;;;;;;-7.29;89.81;98632.33;4053557;86;21090;-80
2021/12/27 16:15:46;;;;;;;132.27;46.53;;;;;;;-7.31;89.88;98629.17;4048845;86;21019;-79
2021/12/27 16:21:47;;;;;;;128.03;45.87;;;;;;;-7.29;89.97;98633.14;4048528;86;21079;-80
2021/12/27 16:27:49;;;;;;;113.83;39.90;;;;;;;-7.26;89.96;98623.30;4051166;86;21035;-80
2021/12/27 16:33:51;;;;;;;120.80;41.00;;;;;;;-7.27;90.00;98629.69;4047106;86;21107;-79
2021/12/27 16:39:53;;;;;;;119.37;45.60;;;;;;;-7.26;90.03;98632.59;4040202;86;21118;-79
2021/12/27 16:45:55;;;;;;;110.37;41.33;;;;;;;-7.30;90.16;98636.87;4049606;86;21028;-79
2021/12/27 16:51:57;;;;;;;114.67;41.63;;;;;;;-7.28;90.14;98641.38;4051147;86;21161;-79
2021/12/27 16:57:59;;;;;;;131.20;44.53;;;;;;;-7.27;90.06;98639.52;4051057;86;21512;-82
2021/12/27 17:04:04;;;;;;;121.57;41.33;;;;;;;-7.24;90.42;98653.08;4049817;86;21122;-80
2021/12/27 17:10:07;;;;;;;125.47;42.23;;;;;;;-7.17;90.33;98645.61;4051105;86;21122;-80
2021/12/27 17:16:08;;;;;;;138.83;45.77;;;;;;;-7.15;90.35;98647.47;4051568;86;21607;-80
2021/12/27 17:22:09;;;;;;;120.60;43.07;;;;;;;-7.13;90.20;98649.86;4050465;86;21103;-80
2021/12/27 17:28:14;;;;;;;114.60;42.50;;;;;;;-7.14;90.34;98641.08;4051420;86;21011;-80
2021/12/27 17:34:15;;;;;;;125.43;45.47;;;;;;;-7.10;90.32;98632.03;4050303;86;21567;-80
2021/12/27 17:40:18;;;;;;;106.23;42.47;;;;;;;-7.11;90.37;98627.80;4048698;86;21072;-81
2021/12/27 17:46:21;;;;;;;120.33;44.33;;;;;;;-7.10;90.48;98635.50;4053631;86;21560;-80
2021/12/27 17:58:53;;;;;;;118.20;42.27;;;;;;;-7.04;90.62;98634.94;4045336;86;21042;-81
2021/12/27 18:04:55;;;;;;;146.27;51.30;;;;;;;-6.99;90.48;98629.61;4073078;85;21007;-80
2021/12/27 18:11:04;;;;;;;156.83;54.20;;;;;;;-6.99;90.51;98630.42;4097230;85;21018;-80
2021/12/27 18:17:05;;;;;;;130.97;46.23;;;;;;;-6.95;90.75;98628.80;4090153;85;21019;-80
2021/12/27 18:23:09;;;;;;;126.10;48.90;;;;;;;-6.95;90.56;98632.79;4091693;85;21070;-80
2021/12/27 18:29:10;;;;;;;127.20;47.43;;;;;;;-6.92;90.62;98626.15;4084051;86;21035;-80
2021/12/27 18:35:12;;;;;;;129.70;49.07;;;;;;;-6.92;90.60;98626.15;4039105;86;21090;-80
2021/12/27 18:41:15;;;;;;;139.33;49.80;;;;;;;-6.87;90.82;98626.11;3993275;87;21090;-80
2021/12/27 18:47:17;;;;;;;142.73;54.13;;;;;;;-6.85;90.72;98619.46;4087281;86;21108;-80
2021/12/27 18:53:20;;;;;;;133.33;47.03;;;;;;;-6.81;90.92;98620.50;4105483;86;21066;-79
2021/12/27 18:59:24;;;;;;;145.83;56.07;;;;;;;-6.80;90.81;98623.97;3838491;86;10000207;-79
2021/12/27 19:05:28;;;;;;;148.83;53.07;;;;;;;-6.80;90.74;98607.47;4093864;85;21136;-80
2021/12/27 19:18:09;;;;;;;154.93;56.57;;;;;;;-6.77;90.94;98616.24;4053418;86;20976;-80
2021/12/27 19:24:13;;;;;;;168.00;64.37;;;;;;;-6.73;90.84;98613.81;4051052;86;21091;-80
2021/12/27 19:30:14;;;;;;;134.43;51.30;;;;;;;-6.73;90.88;98608.48;4051566;86;21966;-80
2021/12/27 19:36:16;;;;;;;143.83;51.20;;;;;;;-6.72;90.91;98612.20;4053917;86;21087;-80
2021/12/27 19:42:18;;;;;;;120.67;45.13;;;;;;;-6.70;91.11;98610.08;4053919;86;21091;-80
2021/12/27 19:48:19;;;;;;;145.10;51.33;;;;;;;-6.66;90.92;98611.14;4052606;86;21094;-80
2021/12/27 19:54:23;;;;;;;160.63;55.20;;;;;;;-6.65;91.00;98615.91;4052413;86;21130;-80
2021/12/27 20:00:26;;;;;;;142.87;50.37;;;;;;;-6.63;91.16;98613.25;4050982;86;21086;-80
2021/12/27 20:06:28;;;;;;;135.60;48.90;;;;;;;-6.61;91.06;98606.33;4053193;86;21644;-79
2021/12/27 20:12:30;;;;;;;122.77;45.47;;;;;;;-6.61;91.07;98600.45;4049318;86;21096;-80
2021/12/27 20:18:32;;;;;;;130.40;47.93;;;;;;;-6.59;91.27;98606.83;4051302;86;21077;-80
2021/12/27 20:24:35;;;;;;;126.43;47.03;;;;;;;-6.57;91.22;98613.48;4048610;86;21135;-80
2021/12/27 20:30:39;;;;;;;131.50;47.50;;;;;;;-6.52;91.25;98610.81;3939323;86;9999841;-80
2021/12/27 20:36:58;;;;;;;134.93;49.97;;;;;;;-6.51;91.27;98610.25;4047874;86;21400;-79
2021/12/27 20:43:01;;;;;;;151.50;55.63;;;;;;;-6.47;91.41;98611.31;4047770;86;20996;-80
2021/12/27 20:49:04;;;;;;;135.23;49.63;;;;;;;-6.43;91.38;98611.54;4050429;86;20980;-79
2021/12/27 20:55:08;;;;;;;128.20;48.30;;;;;;;-6.40;91.42;98601.14;4049352;86;21148;-82
2021/12/27 21:01:10;;;;;;;123.97;48.70;;;;;;;-6.37;91.33;98599.81;4050587;86;21058;-79
2021/12/27 21:07:11;;;;;;;127.23;50.20;;;;;;;-6.35;91.53;98585.14;4046363;86;21097;-80
2021/12/27 21:13:14;;;;;;;115.60;47.77;;;;;;;-6.33;91.50;98573.69;4049371;86;21025;-80
2021/12/27 21:19:15;;;;;;;130.03;46.53;;;;;;;-6.31;91.48;98572.84;4044673;86;21080;-80
2021/12/27 21:25:16;;;;;;;118.07;45.93;;;;;;;-6.29;91.47;98571.23;4051370;85;21031;-79
2021/12/27 21:31:17;;;;;;;106.37;43.77;;;;;;;-6.24;91.71;98573.34;3934671;86;10000049;-79
2021/12/27 21:37:19;;;;;;;109.87;42.33;;;;;;;-6.20;91.79;98576.27;4047963;86;21146;-79
2021/12/27 21:43:20;;;;;;;130.77;47.10;;;;;;;-6.15;91.83;98585.56;4050836;86;22284;-80
2021/12/27 21:49:24;;;;;;;108.10;43.77;;;;;;;-6.13;91.77;98576.20;4052062;86;21098;-80
2021/12/27 21:55:28;;;;;;;111.43;41.90;;;;;;;-6.08;91.71;98573.52;4048780;86;21552;-80
2021/12/27 22:01:29;;;;;;;111.67;44.27;;;;;;;-6.08;91.79;98576.70;4061194;86;21584;-79
2021/12/27 22:14:29;;;;;;;108.47;42.43;;;;;;;-6.01;91.88;98561.21;4072840;85;21141;-80
2021/12/27 22:20:31;;;;;;;110.50;44.10;;;;;;;-6.00;91.90;98556.12;4093252;85;21113;-80
2021/12/27 22:26:33;;;;;;;113.73;42.50;;;;;;;-5.99;91.88;98558.52;4096990;85;21082;-80
2021/12/27 22:32:34;;;;;;;113.73;45.77;;;;;;;-5.97;92.02;98560.37;4092813;85;21062;-80
2021/12/27 22:38:39;;;;;;;131.67;48.37;;;;;;;-5.96;92.01;98541.16;4096064;85;21066;-82
2021/12/27 22:44:40;;;;;;;172.30;65.17;;;;;;;-5.93;92.20;98541.93;4093420;85;21090;-80
2021/12/27 22:50:41;;;;;;;129.80;50.87;;;;;;;-5.88;92.32;98545.37;4091121;85;21031;-80
2021/12/27 22:56:43;;;;;;;128.97;48.27;;;;;;;-5.82;92.29;98541.58;4090600;85;21103;-80
2021/12/27 23:02:45;;;;;;;108.90;40.90;;;;;;;-5.78;92.29;98537.79;4092337;85;22310;-81
2021/12/27 23:08:49;;;;;;;128.67;50.87;;;;;;;-5.78;92.18;98541.79;4059670;85;21115;-81
2021/12/27 23:14:51;;;;;;;129.77;44.93;;;;;;;-5.75;92.35;98537.23;4050057;86;21608;-80
2021/12/27 23:20:52;;;;;;;99.47;39.70;;;;;;;-5.73;92.52;98537.20;4047839;86;21067;-80
2021/12/27 23:26:54;;;;;;;124.00;45.00;;;;;;;-5.66;92.57;98547.01;4045868;86;22144;-80
2021/12/27 23:33:01;;;;;;;98.83;38.77;;;;;;;-5.62;92.48;98549.92;4138619;84;28106;-80
2021/12/27 23:39:00;;;;;;;110.17;42.80;;;;;;;-5.58;92.58;98548.27;4144044;84;21126;-79
2021/12/27 23:45:05;;;;;;;111.07;39.33;;;;;;;-5.56;92.59;98543.45;4139542;84;22407;-80
2021/12/27 23:51:06;;;;;;;111.05;38.73;;;;;;;-5.52;92.55;98547.94;4136273;84;21305;-80
2021/12/27 23:57:07;;;;;;;103.40;37.83;;;;;;;-5.49;92.62;98546.56;4141518;84;21034;-80
